Time;durP1;ratioP1;P1;durP2;ratioP2;P2;SDS_P1;SDS_P2;PMS_P1;PMS_P2;Temp;Humidity;BMP_temperature;BMP_pressure;BME280_temperature;BME280_humidity;BME280_pressure;Samples;Min_cycle;Max_cycle;Signal;HPM_P1;HPM_P2
2023/07/24 00:02:03;;;;;;;1.20;1.10;;;20.30;66.30;20.40;99813.00;;;;4945215;28;117192;-65
2023/07/24 00:04:31;;;;;;;1.92;1.23;;;20.30;66.60;20.50;99808.00;;;;4944928;28;101549;-65
2023/07/24 00:06:56;;;;;;;0.60;0.60;;;20.30;66.80;20.40;99808.00;;;;4945015;28;95085;-65
2023/07/24 00:09:22;;;;;;;4.90;1.30;;;20.30;67.20;20.50;99798.00;;;;4948458;28;118389;-65
2023/07/24 00:11:48;;;;;;;1.38;0.93;;;20.30;67.20;20.50;99802.00;;;;4949221;28;100437;-65
2023/07/24 00:14:15;;;;;;;1.90;1.30;;;20.30;67.30;20.50;99806.00;;;;4947783;28;110493;-66
2023/07/24 00:16:41;;;;;;;1.23;0.70;;;20.30;67.60;20.40;99801.00;;;;4948743;28;99132;-65
2023/07/24 00:19:07;;;;;;;1.50;0.90;;;20.30;67.60;20.50;99800.00;;;;4948094;28;87957;-66
2023/07/24 00:21:32;;;;;;;0.95;0.95;;;20.30;67.80;20.40;99789.00;;;;4950359;28;92379;-66
2023/07/24 00:23:58;;;;;;;1.92;1.00;;;20.30;67.80;20.40;99783.00;;;;4949999;28;108507;-66
2023/07/24 00:26:24;;;;;;;1.33;1.00;;;20.20;67.80;20.40;99777.00;;;;4949166;28;108459;-66
2023/07/24 00:28:49;;;;;;;3.20;1.27;;;20.20;67.80;20.40;99766.00;;;;4951612;28;118125;-66
2023/07/24 00:31:15;;;;;;;1.65;0.70;;;20.20;67.80;20.40;99760.00;;;;4947415;28;117473;-67
2023/07/24 00:33:40;;;;;;;1.35;0.82;;;20.20;67.80;20.40;99758.00;;;;4950066;28;111301;-66
2023/07/24 00:36:06;;;;;;;2.58;1.55;;;20.20;67.90;20.30;99765.00;;;;4947317;28;108698;-66
2023/07/24 00:38:32;;;;;;;1.33;0.80;;;20.20;68.00;20.30;99776.00;;;;4952901;28;116415;-66
2023/07/24 00:40:58;;;;;;;1.42;1.10;;;20.20;67.90;20.30;99771.00;;;;4950614;28;117782;-66
2023/07/24 00:43:23;;;;;;;1.85;0.98;;;20.20;68.10;20.30;99762.00;;;;4950983;28;111217;-66
2023/07/24 00:45:49;;;;;;;2.22;1.52;;;20.10;68.30;20.30;99768.00;;;;4947178;28;108212;-66
2023/07/24 00:48:15;;;;;;;2.50;1.02;;;20.10;68.40;20.30;99766.00;;;;4952705;28;116961;-66
2023/07/24 00:50:43;;;;;;;1.50;1.05;;;20.20;68.60;20.30;99760.00;;;;4945868;28;114413;-66
2023/07/24 00:53:10;;;;;;;1.80;1.02;;;20.20;68.70;20.40;99761.00;;;;4953410;28;87874;-66
2023/07/24 00:55:36;;;;;;;1.48;1.02;;;20.20;68.80;20.40;99766.00;;;;4947950;28;93759;-66
2023/07/24 00:58:03;;;;;;;2.40;1.33;;;20.20;69.00;20.30;99765.00;;;;4949936;28;118040;-66
2023/07/24 01:00:28;;;;;;;3.40;1.55;;;20.20;69.00;20.30;99758.00;;;;4950040;28;116714;-66
2023/07/24 01:02:56;;;;;;;0.98;0.80;;;20.20;69.20;20.40;99760.00;;;;4947904;28;110586;-67
2023/07/24 01:05:24;;;;;;;1.90;1.52;;;20.20;69.20;20.40;99757.00;;;;4978907;28;88384;-66
2023/07/24 01:07:53;;;;;;;1.15;0.77;;;20.20;69.40;20.40;99753.00;;;;4950317;28;88768;-66
2023/07/24 01:10:19;;;;;;;1.13;1.08;;;20.20;69.40;20.40;99748.00;;;;4949570;28;108093;-66
2023/07/24 01:13:16;;;;;;;5.10;1.15;;;20.20;69.50;20.30;99748.00;;;;4946940;28;111191;-65
2023/07/24 01:15:55;;;;;;;1.35;1.13;;;20.20;69.60;20.30;99756.00;;;;4946790;28;89900;-66
2023/07/24 01:18:24;;;;;;;1.85;0.90;;;20.20;69.60;20.30;99746.00;;;;4947302;28;105235;-65
2023/07/24 01:20:57;;;;;;;1.30;1.08;;;20.20;69.50;20.30;99753.00;;;;4948550;28;96398;-65
2023/07/24 01:24:03;;;;;;;2.35;1.02;;;20.10;69.60;20.20;99749.00;;;;4949281;28;88110;-65
2023/07/24 01:26:29;;;;;;;2.10;0.85;;;20.10;69.80;20.20;99748.00;;;;4954982;28;87846;-65
2023/07/24 01:28:54;;;;;;;2.38;1.35;;;20.00;69.90;20.20;99738.00;;;;4946740;28;118532;-65
2023/07/24 01:31:20;;;;;;;1.13;1.02;;;20.00;70.00;20.10;99734.00;;;;4949036;28;119788;-65
2023/07/24 01:33:46;;;;;;;3.17;1.65;;;20.00;70.20;20.10;99732.00;;;;4950215;28;87840;-66
2023/07/24 01:36:14;;;;;;;1.55;0.93;;;19.90;70.20;20.00;99728.00;;;;4947249;28;108238;-66
2023/07/24 01:38:41;;;;;;;1.35;1.25;;;19.90;70.30;20.00;99734.00;;;;4946831;28;87438;-66
2023/07/24 01:41:07;;;;;;;1.10;1.00;;;19.90;70.60;19.90;99724.00;;;;4948416;28;112202;-66
2023/07/24 01:43:33;;;;;;;0.80;0.80;;;19.80;70.80;19.90;99722.00;;;;4952466;28;110758;-66
2023/07/24 01:45:59;;;;;;;1.65;1.55;;;19.80;71.00;19.90;99724.00;;;;4943391;28;108435;-67
2023/07/24 01:48:24;;;;;;;1.23;1.13;;;19.70;71.20;19.80;99728.00;;;;4950550;28;88186;-65
2023/07/24 01:50:50;;;;;;;1.50;0.85;;;19.70;72.10;19.80;99724.00;;;;4947057;28;118222;-65
2023/07/24 01:53:16;;;;;;;2.28;1.23;;;19.70;71.90;19.80;99717.00;;;;4949343;28;100765;-66
2023/07/24 01:55:41;;;;;;;0.98;0.98;;;19.70;72.30;19.80;99720.00;;;;4951986;28;106150;-65
2023/07/24 01:58:07;;;;;;;2.30;1.33;;;19.70;72.60;19.80;99719.00;;;;4947152;28;113541;-67
2023/07/24 02:00:33;;;;;;;2.42;1.15;;;19.60;72.80;19.80;99724.00;;;;4949813;28;99974;-66
2023/07/24 02:03:01;;;;;;;1.77;1.20;;;19.60;72.90;19.80;99724.00;;;;4949282;28;87182;-65
2023/07/24 02:05:27;;;;;;;1.55;1.23;;;19.60;73.10;19.80;99714.00;;;;4949051;28;108145;-66
2023/07/24 02:07:53;;;;;;;1.55;1.10;;;19.60;73.50;19.80;99712.00;;;;4947340;28;93757;-66
2023/07/24 02:10:18;;;;;;;1.42;1.30;;;19.50;73.40;19.80;99712.00;;;;4947772;28;117122;-66
2023/07/24 02:12:44;;;;;;;0.70;0.55;;;19.70;73.70;19.80;99706.00;;;;4946819;28;110189;-66
2023/07/24 02:15:10;;;;;;;1.65;1.17;;;19.70;73.50;19.80;99709.00;;;;4946874;28;109034;-66
2023/07/24 02:17:35;;;;;;;1.00;0.68;;;19.70;73.30;19.90;99710.00;;;;4947449;28;88621;-66
2023/07/24 02:20:01;;;;;;;2.15;1.05;;;19.70;73.60;19.90;99719.00;;;;4946785;28;88735;-66
2023/07/24 02:22:27;;;;;;;2.03;1.23;;;20.00;73.80;19.90;99714.00;;;;4947873;28;111885;-65
2023/07/24 02:24:52;;;;;;;1.35;0.65;;;19.70;73.70;19.90;99715.00;;;;4946646;28;87942;-65
2023/07/24 02:27:27;;;;;;;2.35;1.35;;;19.80;73.80;19.90;99710.00;;;;4951639;28;93577;-65
2023/07/24 02:29:54;;;;;;;1.23;0.90;;;19.80;73.80;19.90;99710.00;;;;4946243;28;88062;-66
2023/07/24 02:32:22;;;;;;;6.35;1.50;;;19.80;73.70;19.90;99705.00;;;;4947067;28;87774;-65
2023/07/24 02:34:51;;;;;;;1.23;1.02;;;19.80;73.90;19.90;99696.00;;;;4948515;28;88856;-65
2023/07/24 02:37:17;;;;;;;1.52;1.20;;;19.80;74.00;19.90;99698.00;;;;4947157;28;89122;-65
2023/07/24 02:39:42;;;;;;;0.75;0.75;;;19.80;74.10;19.90;99710.00;;;;4947413;28;96547;-65
2023/07/24 02:42:08;;;;;;;2.25;1.20;;;19.80;74.20;19.90;99694.00;;;;4944354;28;109264;-66
2023/07/24 02:44:35;;;;;;;1.13;0.90;;;19.80;74.30;19.90;99697.00;;;;4948015;28;107457;-66
2023/07/24 02:47:00;;;;;;;1.38;1.27;;;19.80;74.40;19.90;99696.00;;;;4949097;28;88786;-65
2023/07/24 02:49:26;;;;;;;1.75;1.17;;;19.70;74.30;19.80;99701.00;;;;4948074;28;117361;-65
2023/07/24 02:51:51;;;;;;;2.47;1.85;;;19.70;74.40;19.80;99693.00;;;;4943172;28;109601;-66
2023/07/24 02:54:17;;;;;;;1.65;1.20;;;19.70;74.60;19.70;99695.00;;;;4944942;28;109554;-66
2023/07/24 02:56:43;;;;;;;0.80;0.80;;;19.60;74.70;19.70;99695.00;;;;4945432;28;116392;-65
2023/07/24 02:59:08;;;;;;;1.23;1.08;;;19.60;75.10;19.70;99700.00;;;;4942759;28;117306;-65
2023/07/24 03:01:34;;;;;;;0.68;0.68;;;19.60;75.10;19.60;99698.00;;;;4945693;28;92396;-66
2023/07/24 03:04:00;;;;;;;1.48;1.30;;;19.50;75.60;19.60;99699.00;;;;4946198;28;89104;-66
2023/07/24 03:06:26;;;;;;;1.33;1.08;;;19.50;75.70;19.60;99693.00;;;;4943367;28;116718;-66
2023/07/24 03:08:52;;;;;;;2.40;1.35;;;19.50;75.80;19.50;99706.00;;;;4948118;28;88018;-65
2023/07/24 03:11:17;;;;;;;2.42;1.25;;;19.40;76.10;19.50;99699.00;;;;4946352;28;109668;-66
2023/07/24 03:13:43;;;;;;;1.95;1.25;;;19.40;76.20;19.50;99690.00;;;;4945224;28;107782;-65
2023/07/24 03:16:09;;;;;;;2.28;1.67;;;19.30;76.50;19.40;99698.00;;;;4947296;28;91803;-66
2023/07/24 03:18:34;;;;;;;1.98;1.38;;;19.30;76.60;19.40;99699.00;;;;4945712;28;103256;-65
2023/07/24 03:21:00;;;;;;;2.15;1.27;;;19.30;76.80;19.40;99714.00;;;;4944480;28;110217;-66
2023/07/24 03:23:26;;;;;;;2.78;1.60;;;19.20;77.00;19.30;99703.00;;;;4946195;28;88707;-65
2023/07/24 03:25:52;;;;;;;3.17;1.25;;;19.20;77.00;19.30;99694.00;;;;4945124;28;88392;-65
2023/07/24 03:28:17;;;;;;;2.95;1.15;;;19.20;77.10;19.30;99696.00;;;;4949064;28;117527;-66
2023/07/24 03:30:43;;;;;;;1.70;1.00;;;19.10;77.10;19.30;99691.00;;;;4948944;28;109974;-66
2023/07/24 03:33:09;;;;;;;1.52;1.13;;;19.10;77.30;19.30;99693.00;;;;4945565;28;108821;-66
2023/07/24 03:35:34;;;;;;;2.47;1.10;;;19.10;77.50;19.30;99701.00;;;;4947438;28;88669;-66
2023/07/24 03:38:00;;;;;;;1.30;1.20;;;19.10;77.60;19.20;99693.00;;;;4947330;28;88975;-66
2023/07/24 03:40:26;;;;;;;1.45;1.20;;;19.10;77.70;19.20;99702.00;;;;4945784;28;87168;-66
2023/07/24 03:42:51;;;;;;;2.20;1.33;;;19.10;77.90;19.20;99699.00;;;;4947153;28;100457;-66
2023/07/24 03:45:17;;;;;;;1.67;1.17;;;19.10;78.00;19.20;99707.00;;;;4947794;28;93207;-66
2023/07/24 03:47:43;;;;;;;1.10;1.00;;;19.10;78.10;19.20;99703.00;;;;4946532;28;116336;-66
2023/07/24 03:50:09;;;;;;;1.42;1.00;;;19.10;78.10;19.20;99698.00;;;;4950459;28;110388;-66
2023/07/24 03:52:34;;;;;;;1.58;1.35;;;19.10;78.10;19.30;99695.00;;;;4950951;28;98905;-65
2023/07/24 03:55:02;;;;;;;1.27;0.93;;;19.10;78.20;19.30;99694.00;;;;4946965;28;119275;-65
2023/07/24 03:57:27;;;;;;;1.33;1.13;;;19.10;78.50;19.30;99688.00;;;;4949784;28;103383;-65
2023/07/24 03:59:53;;;;;;;4.05;1.33;;;19.20;78.80;19.30;99684.00;;;;4950945;28;110135;-66
2023/07/24 04:02:19;;;;;;;2.28;1.30;;;19.20;79.00;19.40;99679.00;;;;4950165;28;109530;-66
2023/07/24 04:04:44;;;;;;;2.05;1.83;;;19.20;79.40;19.40;99675.00;;;;4948746;28;117366;-66
2023/07/24 04:07:10;;;;;;;1.50;1.33;;;19.20;79.60;19.40;99678.00;;;;4950469;28;117767;-66
2023/07/24 04:09:36;;;;;;;1.00;0.90;;;19.20;79.80;19.40;99667.00;;;;4948635;28;110173;-66
2023/07/24 04:12:01;;;;;;;2.67;1.20;;;19.20;79.90;19.40;99670.00;;;;4950376;28;88788;-66
2023/07/24 04:14:27;;;;;;;1.65;1.15;;;19.30;80.10;19.50;99673.00;;;;4952538;28;87941;-67
2023/07/24 04:16:53;;;;;;;1.55;1.45;;;19.30;80.00;19.50;99661.00;;;;4948960;28;98775;-66
2023/07/24 04:19:19;;;;;;;2.30;1.73;;;19.30;80.00;19.50;99665.00;;;;4948800;28;87971;-66
2023/07/24 04:21:44;;;;;;;1.88;1.33;;;19.40;80.10;19.60;99650.00;;;;4946983;28;107891;-65
2023/07/24 04:24:10;;;;;;;1.85;0.90;;;19.40;80.20;19.60;99658.00;;;;4950860;28;117674;-65
2023/07/24 04:26:36;;;;;;;1.77;1.40;;;19.40;80.20;19.70;99660.00;;;;4948328;28;117622;-65
2023/07/24 04:29:01;;;;;;;1.77;1.58;;;19.50;80.40;19.70;99653.00;;;;4949922;28;87199;-65
2023/07/24 04:31:27;;;;;;;2.20;0.98;;;19.50;80.40;19.70;99658.00;;;;4952687;28;109006;-65
2023/07/24 04:33:53;;;;;;;1.38;1.25;;;19.60;80.40;19.80;99650.00;;;;4947319;28;88695;-65
2023/07/24 04:36:18;;;;;;;0.75;0.75;;;19.60;80.50;19.80;99647.00;;;;4946116;28;118165;-65
2023/07/24 04:38:46;;;;;;;1.48;1.17;;;19.60;80.60;19.80;99648.00;;;;4947408;28;87821;-65
2023/07/24 04:41:11;;;;;;;2.58;1.25;;;19.60;80.70;19.90;99646.00;;;;4948568;28;87744;-65
2023/07/24 04:43:37;;;;;;;2.10;1.27;;;19.70;80.60;19.90;99646.00;;;;4945794;28;116914;-66
2023/07/24 04:46:03;;;;;;;3.22;1.73;;;19.70;80.40;19.90;99646.00;;;;4945611;28;116651;-65
2023/07/24 04:48:29;;;;;;;1.60;1.35;;;19.70;80.30;20.00;99647.00;;;;4946207;28;110400;-66
2023/07/24 04:50:55;;;;;;;1.70;1.02;;;19.80;80.30;20.00;99654.00;;;;4947416;28;108929;-66
2023/07/24 04:53:22;;;;;;;3.13;1.83;;;19.80;80.20;20.10;99649.00;;;;4931202;28;87287;-66
2023/07/24 04:55:48;;;;;;;1.55;1.13;;;19.90;80.10;20.10;99651.00;;;;4946406;28;88138;-66
2023/07/24 04:58:13;;;;;;;1.60;1.45;;;19.90;80.00;20.20;99648.00;;;;4945688;28;110068;-65
2023/07/24 05:00:40;;;;;;;1.48;1.05;;;20.00;79.90;20.20;99653.00;;;;4946615;28;89200;-67
2023/07/24 05:03:11;;;;;;;1.02;1.00;;;20.10;79.90;20.30;99651.00;;;;4948760;28;118232;-67
2023/07/24 05:05:37;;;;;;;1.52;0.90;;;20.10;79.70;20.40;99659.00;;;;4947414;28;91731;-66
2023/07/24 05:08:04;;;;;;;1.20;1.10;;;20.20;79.90;20.40;99653.00;;;;4948915;28;87727;-66
2023/07/24 05:10:29;;;;;;;1.75;1.33;;;20.20;79.90;20.40;99646.00;;;;4951196;28;100157;-66
2023/07/24 05:12:56;;;;;;;2.75;1.45;;;20.30;80.00;20.50;99639.00;;;;4947591;28;117757;-66
2023/07/24 05:15:22;;;;;;;1.50;1.02;;;20.30;80.30;20.50;99641.00;;;;4949318;28;88643;-66
2023/07/24 05:17:48;;;;;;;1.92;1.35;;;20.30;80.20;20.60;99640.00;;;;4953352;28;93098;-66
2023/07/24 05:20:13;;;;;;;1.90;1.13;;;20.40;80.30;20.60;99637.00;;;;4948467;28;107882;-66
2023/07/24 05:22:39;;;;;;;2.28;1.52;;;20.40;80.30;20.70;99638.00;;;;4947871;28;116661;-66
2023/07/24 05:25:05;;;;;;;2.28;1.33;;;20.50;80.40;20.80;99631.00;;;;4947157;28;116453;-66
2023/07/24 05:27:31;;;;;;;3.97;1.30;;;20.60;80.40;21.00;99625.00;;;;4949162;28;87876;-65
2023/07/24 05:29:57;;;;;;;5.75;2.03;;;20.80;80.20;21.30;99630.00;;;;4946459;28;87612;-65
2023/07/24 05:32:22;;;;;;;2.38;1.30;;;21.00;79.80;21.50;99633.00;;;;4944979;28;117101;-66
2023/07/24 05:34:48;;;;;;;2.22;1.30;;;21.20;79.20;21.80;99635.00;;;;4952076;28;116729;-66
2023/07/24 05:37:14;;;;;;;3.30;1.70;;;21.50;78.50;22.00;99632.00;;;;4946101;28;106734;-65
2023/07/24 05:39:39;;;;;;;2.33;1.60;;;21.70;77.60;22.30;99637.00;;;;4944114;28;107987;-65
2023/07/24 05:42:05;;;;;;;1.98;1.55;;;22.00;76.90;22.50;99630.00;;;;4949427;28;116200;-65
2023/07/24 05:44:31;;;;;;;2.33;1.33;;;22.20;76.00;22.70;99623.00;;;;4949309;28;111124;-66
2023/07/24 05:46:56;;;;;;;4.03;1.20;;;22.40;74.90;22.90;99626.00;;;;4949029;28;88041;-65
2023/07/24 05:49:22;;;;;;;1.60;1.38;;;22.60;73.70;23.10;99632.00;;;;4944438;28;108237;-66
2023/07/24 05:51:48;;;;;;;3.90;1.55;;;22.80;72.30;23.30;99627.00;;;;4949000;28;87976;-65
2023/07/24 05:54:13;;;;;;;2.35;1.15;;;23.10;71.60;23.60;99631.00;;;;4948908;28;111646;-64
2023/07/24 05:56:39;;;;;;;2.58;1.42;;;23.20;70.50;23.70;99622.00;;;;4947440;28;107758;-65
2023/07/24 05:59:04;;;;;;;1.73;1.40;;;23.40;70.00;23.90;99619.00;;;;4947129;28;109512;-65
2023/07/24 06:01:30;;;;;;;5.43;0.90;;;23.60;69.60;24.20;99619.00;;;;4948094;28;116724;-65
2023/07/24 06:03:56;;;;;;;2.35;1.52;;;23.80;68.20;24.40;99623.00;;;;4948815;28;88060;-65
2023/07/24 06:06:21;;;;;;;2.92;1.73;;;24.10;67.10;24.60;99619.00;;;;4952023;28;110297;-66
2023/07/24 06:08:47;;;;;;;4.38;0.75;;;24.30;66.10;24.80;99621.00;;;;4950097;28;88300;-65
2023/07/24 06:11:16;;;;;;;3.47;1.00;;;24.50;65.80;25.00;99616.00;;;;4947250;28;94298;-65
2023/07/24 06:13:42;;;;;;;9.10;3.67;;;24.70;64.50;25.10;99622.00;;;;4945543;28;106331;-65
2023/07/24 06:16:07;;;;;;;16.55;4.60;;;24.90;64.00;25.20;99620.00;;;;4947060;28;100505;-65
2023/07/24 06:18:34;;;;;;;6.38;1.30;;;25.00;62.90;25.30;99627.00;;;;4951243;28;95051;-66
2023/07/24 06:21:00;;;;;;;3.03;1.42;;;25.00;62.50;25.30;99623.00;;;;4951518;28;110210;-66
2023/07/24 06:23:25;;;;;;;5.15;2.42;;;25.10;61.40;25.40;99626.00;;;;4950139;28;118852;-65
2023/07/24 06:25:52;;;;;;;2.55;1.73;;;25.10;61.40;25.40;99614.00;;;;4952128;28;87684;-66
2023/07/24 06:28:18;;;;;;;3.05;1.40;;;25.20;61.30;25.40;99622.00;;;;4949722;28;87989;-66
2023/07/24 06:30:44;;;;;;;1.33;1.15;;;25.10;60.90;25.40;99623.00;;;;4953043;28;92719;-66
2023/07/24 06:33:09;;;;;;;1.75;1.05;;;25.20;60.90;25.30;99624.00;;;;4948405;28;116623;-65
2023/07/24 06:35:35;;;;;;;1.85;1.30;;;25.10;60.90;25.40;99618.00;;;;4948670;28;88130;-66
2023/07/24 06:38:01;;;;;;;2.05;1.05;;;25.10;60.40;25.40;99617.00;;;;4946233;28;100663;-64
2023/07/24 06:40:27;;;;;;;1.55;1.20;;;25.20;60.80;25.50;99607.00;;;;4951865;28;116760;-65
2023/07/24 06:42:52;;;;;;;2.95;1.42;;;25.20;60.70;25.60;99597.00;;;;4950861;28;88445;-65
2023/07/24 06:45:18;;;;;;;1.25;1.13;;;25.40;60.20;25.80;99599.00;;;;4952763;28;87700;-66
2023/07/24 06:47:44;;;;;;;2.22;1.23;;;25.50;59.70;26.00;99602.00;;;;4945038;28;106764;-65
2023/07/24 06:50:10;;;;;;;2.25;1.15;;;25.60;59.00;26.10;99600.00;;;;4946681;28;117692;-64
2023/07/24 06:52:35;;;;;;;2.00;0.90;;;25.80;58.70;26.30;99607.00;;;;4950155;28;88867;-65
2023/07/24 06:55:02;;;;;;;3.47;1.08;;;26.00;58.50;26.60;99602.00;;;;4946733;28;87270;-66
2023/07/24 06:57:27;;;;;;;3.53;0.98;;;26.20;58.30;26.80;99606.00;;;;4948019;28;87874;-65
2023/07/24 06:59:53;;;;;;;2.53;1.65;;;26.50;57.70;27.10;99605.00;;;;4944970;28;119419;-65
2023/07/24 07:02:21;;;;;;;1.42;0.70;;;26.70;56.40;27.30;99608.00;;;;4947089;28;117093;-65
2023/07/24 07:04:47;;;;;;;2.45;1.10;;;27.00;55.30;27.40;99616.00;;;;4947792;28;109217;-66
2023/07/24 07:07:12;;;;;;;1.90;0.98;;;27.10;54.40;27.50;99610.00;;;;4947197;28;107534;-65
2023/07/24 07:09:38;;;;;;;1.45;0.90;;;27.30;53.60;27.60;99619.00;;;;4946606;28;117752;-66
2023/07/24 07:12:04;;;;;;;3.92;2.42;;;27.30;53.40;27.70;99607.00;;;;4943457;28;116573;-66
2023/07/24 07:14:30;;;;;;;3.03;1.77;;;27.40;52.80;27.70;99602.00;;;;4946140;28;89141;-67
2023/07/24 07:16:55;;;;;;;2.55;1.45;;;27.50;51.90;27.70;99609.00;;;;4948395;28;109024;-66
2023/07/24 07:19:21;;;;;;;6.60;1.55;;;27.40;52.10;27.70;99596.00;;;;4945133;28;117156;-66
2023/07/24 07:21:47;;;;;;;1.25;0.93;;;27.60;51.70;27.70;99599.00;;;;4941941;28;117499;-67
2023/07/24 07:24:12;;;;;;;2.55;1.58;;;27.50;51.50;27.70;99602.00;;;;4946147;28;109971;-67
2023/07/24 07:26:38;;;;;;;4.05;2.08;;;27.40;51.60;27.70;99599.00;;;;4944265;28;108752;-68
2023/07/24 07:29:04;;;;;;;1.45;1.35;;;27.40;51.30;27.70;99601.00;;;;4945451;28;88703;-68
2023/07/24 07:31:30;;;;;;;2.63;1.20;;;27.40;51.30;27.80;99606.00;;;;4948267;28;92995;-69
2023/07/24 07:33:55;;;;;;;2.20;0.95;;;27.50;51.10;27.80;99600.00;;;;4947828;28;88402;-67
2023/07/24 07:36:22;;;;;;;1.50;1.23;;;27.60;51.20;27.90;99605.00;;;;4943975;28;107469;-66
2023/07/24 07:38:48;;;;;;;3.35;1.23;;;27.70;51.00;27.90;99604.00;;;;4948718;28;88279;-66
2023/07/24 07:41:14;;;;;;;2.80;1.38;;;27.70;50.60;27.80;99604.00;;;;4946654;28;88538;-67
2023/07/24 07:43:40;;;;;;;2.38;1.13;;;27.60;50.60;27.70;99603.00;;;;4948215;28;91283;-66
2023/07/24 07:46:05;;;;;;;1.10;0.98;;;27.50;50.70;27.70;99592.00;;;;4947068;28;112070;-66
2023/07/24 07:48:32;;;;;;;0.80;0.75;;;27.50;50.80;27.80;99588.00;;;;4945892;28;109164;-67
2023/07/24 07:50:58;;;;;;;1.23;1.10;;;27.50;50.80;27.90;99583.00;;;;4946335;28;88777;-69
2023/07/24 07:53:23;;;;;;;1.10;1.05;;;27.60;50.70;28.00;99587.00;;;;4948593;28;109634;-66
2023/07/24 07:55:57;;;;;;;2.22;1.10;;;27.70;50.90;28.10;99579.00;;;;4945394;28;108527;-67
2023/07/24 07:58:23;;;;;;;0.93;0.70;;;27.80;50.80;28.10;99583.00;;;;4946342;28;88902;-68
2023/07/24 08:00:49;;;;;;;2.33;1.23;;;27.80;50.00;28.00;99576.00;;;;4942369;28;87922;-67
2023/07/24 08:03:15;;;;;;;2.25;1.15;;;27.80;50.00;28.00;99572.00;;;;4947875;28;88886;-68
2023/07/24 08:05:40;;;;;;;0.93;0.82;;;27.80;50.20;27.90;99575.00;;;;4951564;28;108281;-67
2023/07/24 08:08:06;;;;;;;3.50;1.40;;;27.70;50.30;27.80;99569.00;;;;4946887;28;116480;-68
2023/07/24 08:10:32;;;;;;;5.07;2.08;;;27.60;50.10;27.70;99561.00;;;;4946535;28;116892;-65
2023/07/24 08:13:00;;;;;;;1.17;0.65;;;27.50;50.30;27.50;99552.00;;;;4945463;28;108127;-67
2023/07/24 08:15:26;;;;;;;0.95;0.45;;;27.30;50.30;27.50;99551.00;;;;4945429;28;109811;-67
2023/07/24 08:17:51;;;;;;;2.08;1.85;;;27.20;50.60;27.40;99553.00;;;;4946661;28;118056;-67
2023/07/24 08:20:17;;;;;;;7.97;2.03;;;27.20;51.50;27.40;99557.00;;;;4948518;28;117610;-66
2023/07/24 08:22:43;;;;;;;2.53;1.23;;;27.20;50.60;27.30;99556.00;;;;4946172;28;91751;-67
2023/07/24 08:25:08;;;;;;;3.35;1.90;;;27.00;50.60;27.20;99556.00;;;;4946211;28;108250;-67
2023/07/24 08:27:34;;;;;;;3.78;1.42;;;27.00;50.60;27.10;99548.00;;;;4946365;28;118139;-67
2023/07/24 08:30:00;;;;;;;4.15;1.35;;;26.90;50.80;27.10;99545.00;;;;4948984;28;117472;-68
2023/07/24 08:32:25;;;;;;;1.30;1.20;;;26.80;51.00;27.10;99547.00;;;;4947867;28;109612;-68
2023/07/24 08:34:51;;;;;;;3.15;2.30;;;26.80;50.70;27.00;99549.00;;;;4948083;28;107848;-67
2023/07/24 08:37:23;;;;;;;8.07;2.42;;;26.80;51.00;27.00;99557.00;;;;4949008;28;117999;-68
2023/07/24 08:39:48;;;;;;;2.67;1.02;;;26.70;51.10;27.00;99543.00;;;;4950273;28;117953;-67
2023/07/24 08:42:14;;;;;;;4.22;2.05;;;26.70;51.20;27.00;99555.00;;;;4949164;28;109639;-67
2023/07/24 08:44:41;;;;;;;1.73;1.10;;;26.70;51.30;27.10;99542.00;;;;4950410;28;98447;-68
2023/07/24 08:47:11;;;;;;;1.58;1.35;;;26.80;51.10;27.10;99537.00;;;;4947864;28;87913;-67
2023/07/24 08:49:40;;;;;;;4.35;2.42;;;26.80;50.90;27.10;99538.00;;;;4954801;28;87976;-67
2023/07/24 08:52:07;;;;;;;2.13;1.17;;;26.80;51.60;27.20;99543.00;;;;4948211;28;87989;-66
2023/07/24 08:54:35;;;;;;;3.63;1.75;;;26.90;51.10;27.30;99543.00;;;;4949115;28;87958;-66
2023/07/24 08:57:02;;;;;;;7.38;1.75;;;27.00;51.10;27.50;99535.00;;;;4946267;28;87624;-65
2023/07/24 08:59:29;;;;;;;1.58;1.13;;;27.20;51.20;27.60;99540.00;;;;4947534;28;107878;-66
2023/07/24 09:01:55;;;;;;;2.63;1.27;;;27.30;51.20;27.80;99556.00;;;;4947558;28;87816;-66
2023/07/24 09:04:21;;;;;;;1.80;1.17;;;27.40;50.80;28.10;99550.00;;;;4941507;28;108959;-66
2023/07/24 09:06:47;;;;;;;2.42;1.40;;;27.60;50.30;28.30;99549.00;;;;4951474;28;116599;-67
2023/07/24 09:09:14;;;;;;;1.77;0.90;;;27.90;49.90;28.70;99548.00;;;;4949501;28;87866;-66
2023/07/24 09:11:52;;;;;;;4.80;1.38;;;28.20;49.40;29.00;99544.00;;;;4955831;28;89012;-67
2023/07/24 09:14:26;;;;;;;1.95;1.13;;;28.50;48.30;29.10;99538.00;;;;4945770;28;88045;-68
2023/07/24 09:17:11;;;;;;;2.85;1.58;;;28.70;48.20;29.30;99528.00;;;;4947002;28;110152;-66
2023/07/24 09:19:38;;;;;;;1.30;1.20;;;28.90;48.00;29.50;99533.00;;;;4952980;28;87925;-68
2023/07/24 09:22:15;;;;;;;1.92;1.10;;;29.00;47.30;29.60;99536.00;;;;4948583;28;95811;-68
2023/07/24 09:24:59;;;;;;;3.05;1.42;;;29.20;46.70;29.70;99536.00;;;;4949635;28;88045;-68
2023/07/24 09:27:28;;;;;;;2.08;1.40;;;29.30;46.50;29.60;99542.00;;;;4949561;28;88812;-67
2023/07/24 09:29:55;;;;;;;1.90;1.10;;;29.30;45.50;29.60;99538.00;;;;4949571;28;89048;-67
2023/07/24 09:32:27;;;;;;;1.92;1.20;;;29.20;45.80;29.50;99542.00;;;;4949298;28;87835;-66
2023/07/24 09:34:55;;;;;;;3.67;1.60;;;29.20;46.10;29.60;99542.00;;;;4952036;28;87859;-68
2023/07/24 09:37:34;;;;;;;2.58;1.20;;;29.20;46.00;29.60;99540.00;;;;4953338;28;88384;-67
2023/07/24 09:40:03;;;;;;;1.52;1.13;;;29.20;46.20;29.70;99528.00;;;;4949579;28;88574;-68
2023/07/24 09:42:34;;;;;;;4.20;1.75;;;29.30;45.90;29.60;99531.00;;;;4947747;28;100446;-68
2023/07/24 09:45:02;;;;;;;1.90;1.35;;;29.30;45.00;29.50;99531.00;;;;4947606;28;87833;-68
2023/07/24 09:47:28;;;;;;;2.85;1.42;;;29.20;45.40;29.50;99527.00;;;;4951100;28;111288;-68
2023/07/24 09:49:54;;;;;;;1.50;0.90;;;29.20;45.30;29.60;99527.00;;;;4947048;28;115712;-67
2023/07/24 09:52:20;;;;;;;3.35;1.42;;;29.20;45.60;29.70;99520.00;;;;4950600;28;109903;-68
2023/07/24 09:54:59;;;;;;;2.38;1.13;;;29.30;45.80;29.80;99525.00;;;;4948528;28;88835;-67
2023/07/24 09:57:28;;;;;;;1.48;1.25;;;29.40;45.70;30.00;99533.00;;;;4958029;28;88240;-68
2023/07/24 09:59:56;;;;;;;2.45;1.23;;;29.50;45.30;30.00;99523.00;;;;4957530;28;107476;-67
2023/07/24 10:02:23;;;;;;;2.17;1.23;;;29.70;45.10;30.00;99530.00;;;;4955837;28;88005;-67
2023/07/24 10:04:49;;;;;;;4.15;1.90;;;29.70;45.10;30.00;99515.00;;;;4952111;28;87750;-68
2023/07/24 10:07:15;;;;;;;3.35;1.33;;;29.70;45.00;30.00;99519.00;;;;4947646;28;89384;-68
2023/07/24 10:09:43;;;;;;;3.33;1.75;;;29.70;45.00;29.90;99509.00;;;;4951146;28;88132;-68
2023/07/24 10:12:09;;;;;;;2.00;1.30;;;29.60;45.10;29.90;99503.00;;;;4950327;28;110738;-67
2023/07/24 10:14:36;;;;;;;2.83;1.52;;;29.70;45.20;29.90;99505.00;;;;4944223;28;108999;-69
2023/07/24 10:17:02;;;;;;;1.63;1.52;;;29.60;45.40;30.00;99492.00;;;;4950704;28;103477;-68
2023/07/24 10:19:43;;;;;;;2.58;1.55;;;29.70;45.60;30.20;99497.00;;;;4947286;28;116619;-68
2023/07/24 10:22:19;;;;;;;7.03;1.98;;;29.80;45.40;30.30;99478.00;;;;4950910;28;100567;-69
2023/07/24 10:24:46;;;;;;;3.28;1.73;;;29.90;45.00;30.40;99476.00;;;;4976766;28;88229;-69
2023/07/24 10:27:12;;;;;;;4.97;2.13;;;30.00;44.80;30.50;99466.00;;;;4949440;28;88522;-68
2023/07/24 10:29:38;;;;;;;2.88;1.88;;;30.10;45.00;30.60;99464.00;;;;4950316;28;88795;-69
2023/07/24 10:32:17;;;;;;;3.08;1.60;;;30.20;44.90;30.80;99463.00;;;;4949288;28;87680;-67
2023/07/24 10:34:42;;;;;;;4.90;2.15;;;30.40;45.00;31.00;99462.00;;;;4951704;28;87914;-68
2023/07/24 10:37:09;;;;;;;4.80;1.60;;;30.50;44.30;31.10;99468.00;;;;4946720;28;116789;-67
2023/07/24 10:39:43;;;;;;;3.63;1.77;;;30.60;44.30;31.20;99468.00;;;;4949721;28;87930;-68
2023/07/24 10:42:10;;;;;;;3.20;2.00;;;30.70;44.20;31.20;99465.00;;;;4947143;28;87918;-68
2023/07/24 10:44:37;;;;;;;3.53;1.77;;;30.80;43.80;31.20;99463.00;;;;4947909;28;89061;-68
2023/07/24 10:47:03;;;;;;;1.58;1.45;;;30.80;44.20;31.30;99457.00;;;;4947665;28;89217;-67
2023/07/24 10:49:29;;;;;;;5.57;2.10;;;30.90;44.60;31.50;99453.00;;;;4945365;28;89251;-66